createdAt,value
2023-03-15T00:00:42.556Z,97148.38
2023-03-15T00:01:46.846Z,97159.88
2023-03-15T00:02:48.658Z,97151.56
2023-03-15T00:03:54.962Z,97165.47
2023-03-15T00:04:56.801Z,97158.13
2023-03-15T00:06:02.133Z,97170.28
2023-03-15T00:07:05.073Z,97178.06
2023-03-15T00:08:06.864Z,97180.09
2023-03-15T00:09:10.004Z,97168.09
2023-03-15T00:10:11.931Z,97194.16
2023-03-15T00:11:15.303Z,97179.84
2023-03-15T00:12:17.077Z,97197.44
2023-03-15T00:13:19.877Z,97202.06
2023-03-15T00:14:21.959Z,97206.44
2023-03-15T00:15:24.708Z,97209.19
2023-03-15T00:16:27.557Z,97218.88
2023-03-15T00:17:30.320Z,97226.91
2023-03-15T00:18:32.265Z,97215.06
2023-03-15T00:19:36.403Z,97234.56
2023-03-15T00:20:38.260Z,97251.34
2023-03-15T00:21:43.286Z,97245.84
2023-03-15T00:22:45.331Z,97265.06
2023-03-15T00:23:48.177Z,97257.97
2023-03-15T00:24:50.003Z,97283.44
2023-03-15T00:25:53.708Z,97295.88
2023-03-15T00:26:55.569Z,97294.75
2023-03-15T00:27:58.313Z,97306.34
2023-03-15T00:29:00.219Z,97304.84
2023-03-15T00:30:03.194Z,97307.00
2023-03-15T00:31:09.430Z,97318.72
2023-03-15T00:32:12.255Z,97328.50
2023-03-15T00:33:14.731Z,97333.94
2023-03-15T00:34:18.859Z,97334.34
2023-03-15T00:35:23.963Z,97337.47
2023-03-15T00:36:27.522Z,97341.50
2023-03-15T00:37:31.391Z,97343.09
2023-03-15T00:38:36.710Z,97355.59
2023-03-15T00:39:40.524Z,97357.06
2023-03-15T00:40:44.488Z,97345.44
2023-03-15T00:41:46.900Z,97345.84
2023-03-15T00:42:50.984Z,97358.31
2023-03-15T00:43:52.850Z,97367.31
2023-03-15T00:44:56.440Z,97369.31
2023-03-15T00:45:58.527Z,97367.91
2023-03-15T00:47:01.263Z,97379.59
2023-03-15T00:48:03.222Z,97376.44
2023-03-15T00:49:05.993Z,97381.59
2023-03-15T00:50:08.625Z,97389.50
2023-03-15T00:51:14.945Z,97390.31
2023-03-15T00:52:16.797Z,97385.13
2023-03-15T00:53:22.562Z,97396.44
2023-03-15T00:54:24.868Z,97395.72
2023-03-15T00:55:28.056Z,97402.78
2023-03-15T00:56:30.779Z,97400.19
2023-03-15T00:57:35.308Z,97408.91
2023-03-15T00:58:37.588Z,97418.44
2023-03-15T00:59:40.613Z,97421.97
2023-03-15T01:01:01.380Z,97426.78
2023-03-15T01:02:05.013Z,97423.38
2023-03-15T01:03:07.059Z,97423.66
2023-03-15T01:04:10.311Z,97428.91
2023-03-15T01:05:14.208Z,97430.81
2023-03-15T01:06:20.708Z,97438.81
2023-03-15T01:07:23.063Z,97442.47
2023-03-15T01:08:26.313Z,97440.00
2023-03-15T01:09:28.407Z,97444.47
2023-03-15T01:10:31.421Z,97447.88
2023-03-15T01:11:34.454Z,97456.44
2023-03-15T01:12:36.510Z,97453.84
2023-03-15T01:13:39.883Z,97457.25
2023-03-15T01:14:42.064Z,97464.19
2023-03-15T01:15:47.444Z,97477.38
2023-03-15T01:16:49.759Z,97468.91
2023-03-15T01:17:53.726Z,97469.03
2023-03-15T01:18:55.935Z,97478.56
2023-03-15T01:19:59.233Z,97480.31
2023-03-15T01:21:01.823Z,97483.72
2023-03-15T01:22:06.285Z,97482.09
2023-03-15T01:23:08.333Z,97477.84
2023-03-15T01:24:14.202Z,97493.34
2023-03-15T01:25:20.019Z,97496.03
2023-03-15T01:26:23.552Z,97497.69
2023-03-15T01:27:25.752Z,97492.66
2023-03-15T01:28:30.314Z,97492.78
2023-03-15T01:29:32.382Z,97491.22
2023-03-15T01:30:36.905Z,97493.13
2023-03-15T01:31:39.015Z,97488.91
2023-03-15T01:32:42.901Z,97489.72
2023-03-15T01:33:45.503Z,97499.09
2023-03-15T01:34:48.857Z,97487.97
2023-03-15T01:35:59.033Z,97482.78
2023-03-15T01:37:02.906Z,97492.19
2023-03-15T01:38:13.014Z,97487.13
2023-03-15T01:39:16.154Z,97488.19
2023-03-15T01:40:21.014Z,97497.69
2023-03-15T01:41:26.150Z,97498.50
2023-03-15T01:42:29.410Z,97499.47
2023-03-15T01:43:33.317Z,97504.63
2023-03-15T01:44:53.187Z,97505.59
2023-03-15T01:46:16.780Z,97505.72
2023-03-15T01:47:20.872Z,97505.81
2023-03-15T01:48:26.776Z,97506.75
2023-03-15T01:49:31.294Z,97502.66
2023-03-15T01:50:35.735Z,97510.50
2023-03-15T01:51:41.791Z,97502.75
2023-03-15T01:52:45.369Z,97513.09
2023-03-15T01:53:56.418Z,97514.03
2023-03-15T01:55:02.362Z,97514.97
2023-03-15T01:56:06.705Z,97518.50
2023-03-15T01:57:14.870Z,97519.44
2023-03-15T01:58:16.957Z,97519.53
2023-03-15T01:59:24.448Z,97518.84
2023-03-15T02:00:45.315Z,97531.16
2023-03-15T02:01:54.668Z,97523.44
2023-03-15T02:02:59.974Z,97526.13
2023-03-15T02:04:09.342Z,97516.75
2023-03-15T02:05:19.282Z,97524.38
2023-03-15T02:06:23.272Z,97522.59
2023-03-15T02:07:34.565Z,97528.72
2023-03-15T02:08:41.047Z,97533.19
2023-03-15T02:09:52.116Z,97534.91
2023-03-15T02:10:58.606Z,97530.59
2023-03-15T02:12:03.070Z,97534.91
2023-03-15T02:13:05.558Z,97536.59
2023-03-15T02:14:09.013Z,97528.72
2023-03-15T02:15:13.939Z,97536.47
2023-03-15T02:16:17.241Z,97539.88
2023-03-15T02:17:30.445Z,97541.63
2023-03-15T02:18:35.717Z,97546.91
2023-03-15T02:19:45.710Z,97528.94
2023-03-15T02:20:52.293Z,97536.59
2023-03-15T02:22:03.207Z,97537.50
2023-03-15T02:23:06.763Z,97543.50
2023-03-15T02:24:20.291Z,97546.09
2023-03-15T02:25:28.540Z,97548.78
2023-03-15T02:26:35.088Z,97546.19
2023-03-15T02:27:38.946Z,97565.91
2023-03-15T02:28:42.781Z,97551.34
2023-03-15T02:29:44.703Z,97547.97
2023-03-15T02:30:48.486Z,97550.41
2023-03-15T02:31:50.444Z,97563.31
2023-03-15T02:32:53.312Z,97550.53
2023-03-15T02:33:55.721Z,97553.13
2023-03-15T02:34:59.027Z,97560.66
2023-03-15T02:36:09.560Z,97555.34
2023-03-15T02:37:13.123Z,97570.84
2023-03-15T02:38:15.319Z,97565.69
2023-03-15T02:39:21.356Z,97567.56
2023-03-15T02:40:25.229Z,97565.09
2023-03-15T02:41:31.803Z,97571.31
2023-03-15T02:42:35.425Z,97565.44
2023-03-15T02:43:39.867Z,97560.41
2023-03-15T02:44:44.377Z,97562.16
2023-03-15T02:45:49.059Z,97555.34
2023-03-15T02:46:52.691Z,97565.81
2023-03-15T02:47:57.529Z,97566.72
2023-03-15T02:49:00.263Z,97566.84
2023-03-15T02:50:04.254Z,97554.06
2023-03-15T02:51:06.424Z,97567.78
2023-03-15T02:52:09.681Z,97563.56
2023-03-15T02:53:12.325Z,97574.00
2023-03-15T02:54:15.260Z,97567.09
2023-03-15T02:55:19.285Z,97574.94
2023-03-15T02:56:22.784Z,97572.47
2023-03-15T02:57:25.056Z,97568.13
2023-03-15T02:58:32.405Z,97569.75
2023-03-15T02:59:38.308Z,97571.41
2023-03-15T03:00:41.396Z,97570.59
2023-03-15T03:01:45.913Z,97572.34
2023-03-15T03:02:49.283Z,97575.06
2023-03-15T03:03:51.295Z,97572.47
2023-03-15T03:04:55.602Z,97563.09
2023-03-15T03:05:57.387Z,97575.19
2023-03-15T03:07:00.276Z,97574.34
2023-03-15T03:08:09.288Z,97587.34
2023-03-15T03:09:13.446Z,97580.44
2023-03-15T03:10:19.441Z,97583.25
2023-03-15T03:11:27.436Z,97584.19
2023-03-15T03:12:31.380Z,97595.34
2023-03-15T03:13:34.331Z,97582.31
2023-03-15T03:14:40.032Z,97595.22
2023-03-15T03:15:58.449Z,97591.69
2023-03-15T03:17:03.809Z,97593.59
2023-03-15T03:18:07.275Z,97593.69
2023-03-15T03:19:09.233Z,97603.09
2023-03-15T03:20:14.159Z,97598.03
2023-03-15T03:21:20.483Z,97593.81
2023-03-15T03:22:24.654Z,97610.09
2023-03-15T03:23:27.177Z,97592.16
2023-03-15T03:24:29.905Z,97609.28
2023-03-15T03:25:32.059Z,97607.66
2023-03-15T03:26:35.255Z,97620.56
2023-03-15T03:27:37.139Z,97614.56
2023-03-15T03:28:41.655Z,97617.03
2023-03-15T03:29:45.624Z,97618.78
2023-03-15T03:30:49.020Z,97628.31
2023-03-15T03:31:51.297Z,97622.44
2023-03-15T03:32:56.512Z,97626.75
2023-03-15T03:33:58.348Z,97632.84
2023-03-15T03:35:01.448Z,97638.13
2023-03-15T03:36:04.664Z,97641.66
2023-03-15T03:37:08.285Z,97636.59
2023-03-15T03:38:29.681Z,97638.59
2023-03-15T03:39:34.404Z,97638.81
2023-03-15T03:40:37.989Z,97636.34
2023-03-15T03:41:41.302Z,97634.69
2023-03-15T03:42:46.788Z,97651.94
2023-03-15T03:43:49.195Z,97639.13
2023-03-15T03:44:54.474Z,97654.63
2023-03-15T03:45:57.939Z,97655.69
2023-03-15T03:47:00.767Z,97649.69
2023-03-15T03:48:04.680Z,97656.69
2023-03-15T03:49:10.055Z,97668.78
2023-03-15T03:50:12.140Z,97668.66
2023-03-15T03:51:15.666Z,97664.34
2023-03-15T03:52:17.846Z,97661.88
2023-03-15T03:53:21.497Z,97666.94
2023-03-15T03:54:24.717Z,97666.81
2023-03-15T03:55:27.890Z,97668.34
2023-03-15T03:56:29.765Z,97665.75
2023-03-15T03:57:33.192Z,97665.75
2023-03-15T03:58:35.498Z,97667.53
2023-03-15T03:59:50.705Z,97661.53
2023-03-15T04:00:54.373Z,97662.28
2023-03-15T04:01:59.643Z,97658.00
2023-03-15T04:03:02.253Z,97657.94
2023-03-15T04:04:06.899Z,97662.03
2023-03-15T04:05:09.883Z,97658.75
2023-03-15T04:06:12.674Z,97670.72
2023-03-15T04:07:17.978Z,97674.22
2023-03-15T04:08:21.625Z,97672.47
2023-03-15T04:09:24.973Z,97673.41
2023-03-15T04:10:29.312Z,97675.06
2023-03-15T04:11:31.402Z,97679.16
2023-03-15T04:12:40.019Z,97678.25
2023-03-15T04:13:41.856Z,97681.53
2023-03-15T04:14:44.825Z,97693.50
2023-03-15T04:15:47.695Z,97694.22
2023-03-15T04:16:51.886Z,97692.34
2023-03-15T04:17:56.056Z,97698.22
2023-03-15T04:19:00.816Z,97695.41
2023-03-15T04:20:08.990Z,97699.63
2023-03-15T04:21:14.170Z,97700.47
2023-03-15T04:22:18.829Z,97705.75
2023-03-15T04:23:40.143Z,97708.44
2023-03-15T04:25:07.625Z,97711.03
2023-03-15T04:26:26.540Z,97701.72
2023-03-15T04:27:58.600Z,97701.84
2023-03-15T04:29:19.886Z,97701.22
2023-03-15T04:30:42.765Z,97704.06
2023-03-15T04:32:01.674Z,97704.97
2023-03-15T04:33:29.813Z,97701.81
2023-03-15T04:34:51.550Z,97710.38
2023-03-15T04:36:18.419Z,97709.41
2023-03-15T04:37:42.484Z,97712.81
2023-03-15T04:39:07.242Z,97709.41
2023-03-15T04:40:20.782Z,97713.88
2023-03-15T04:41:50.659Z,97702.94
2023-03-15T04:43:17.027Z,97706.47
2023-03-15T04:44:32.324Z,97713.38
2023-03-15T04:46:01.392Z,97715.97
2023-03-15T04:47:26.176Z,97717.81
2023-03-15T04:48:36.247Z,97716.88
2023-03-15T04:50:02.653Z,97711.72
2023-03-15T04:51:23.753Z,97715.22
2023-03-15T04:52:39.859Z,97721.34
2023-03-15T04:54:10.101Z,97714.53
2023-03-15T04:55:25.684Z,97721.44
2023-03-15T04:56:36.600Z,97723.22
2023-03-15T04:58:14.897Z,97715.66
2023-03-15T04:59:25.289Z,97714.03
2023-03-15T05:00:55.782Z,97708.13
2023-03-15T05:02:12.929Z,97719.41
2023-03-15T05:03:46.581Z,97715.28
2023-03-15T05:05:23.910Z,97709.72
2023-03-15T05:06:37.620Z,97712.53
2023-03-15T05:07:57.691Z,97713.56
2023-03-15T05:09:09.731Z,97711.91
2023-03-15T05:10:38.749Z,97715.63
2023-03-15T05:12:13.761Z,97719.38
2023-03-15T05:13:34.156Z,97718.75
2023-03-15T05:14:54.801Z,97718.97
2023-03-15T05:16:16.503Z,97722.47
2023-03-15T05:17:57.727Z,97729.50
2023-03-15T05:19:20.258Z,97725.28
2023-03-15T05:20:39.068Z,97733.22
2023-03-15T05:22:00.423Z,97737.56
2023-03-15T05:23:29.834Z,97741.06
2023-03-15T05:24:57.825Z,97743.72
2023-03-15T05:26:16.427Z,97741.97
2023-03-15T05:27:39.343Z,97743.72
2023-03-15T05:29:08.033Z,97749.81
2023-03-15T05:30:21.588Z,97750.56
2023-03-15T05:31:52.618Z,97748.06
2023-03-15T05:32:55.724Z,97746.22
2023-03-15T05:34:24.324Z,97753.03
2023-03-15T05:35:37.765Z,97748.69
2023-03-15T05:36:48.396Z,97752.78
2023-03-15T05:38:14.531Z,97749.38
2023-03-15T05:39:44.657Z,97751.97
2023-03-15T05:41:06.489Z,97762.19
2023-03-15T05:42:26.101Z,97766.44
2023-03-15T05:43:57.800Z,97769.81
2023-03-15T05:45:17.673Z,97761.03
2023-03-15T05:46:37.204Z,97772.09
2023-03-15T05:47:50.820Z,97765.88
2023-03-15T05:49:08.332Z,97777.75
2023-03-15T05:50:38.738Z,97780.94
2023-03-15T05:52:16.326Z,97776.72
2023-03-15T05:53:44.599Z,97781.66
2023-03-15T05:55:07.998Z,97765.25
2023-03-15T05:56:21.078Z,97777.84
2023-03-15T05:57:51.469Z,97773.50
2023-03-15T05:59:13.799Z,97779.38
2023-03-15T06:00:35.547Z,97770.72
2023-03-15T06:01:45.173Z,97784.31
2023-03-15T06:02:55.932Z,97791.25
2023-03-15T06:04:09.673Z,97791.13
2023-03-15T06:05:12.836Z,97789.38
2023-03-15T06:06:17.522Z,97793.63
2023-03-15T06:07:21.244Z,97795.25
2023-03-15T06:08:24.347Z,97802.06
2023-03-15T06:09:26.316Z,97800.19
2023-03-15T06:10:29.360Z,97796.47
2023-03-15T06:11:34.051Z,97799.88
2023-03-15T06:12:37.971Z,97802.38
2023-03-15T06:13:40.132Z,97808.13
2023-03-15T06:14:51.412Z,97807.19
2023-03-15T06:15:53.265Z,97804.41
2023-03-15T06:16:56.409Z,97812.78
2023-03-15T06:18:01.129Z,97817.63
2023-03-15T06:19:04.531Z,97821.59
2023-03-15T06:20:07.821Z,97822.22
2023-03-15T06:21:11.172Z,97825.50
2023-03-15T06:22:14.450Z,97831.28
2023-03-15T06:23:24.421Z,97832.94
2023-03-15T06:24:26.521Z,97837.91
2023-03-15T06:25:30.462Z,97838.59
2023-03-15T06:26:32.530Z,97841.81
2023-03-15T06:27:39.452Z,97846.03
2023-03-15T06:28:41.659Z,97850.25
2023-03-15T06:29:44.694Z,97853.78
2023-03-15T06:30:47.105Z,97856.47
2023-03-15T06:31:50.729Z,97862.47
2023-03-15T06:32:53.701Z,97858.84
2023-03-15T06:33:56.982Z,97854.41
2023-03-15T06:35:00.626Z,97858.00
2023-03-15T06:36:02.831Z,97860.59
2023-03-15T06:37:05.845Z,97862.25
2023-03-15T06:38:11.852Z,97864.00
2023-03-15T06:39:14.836Z,97863.06
2023-03-15T06:40:16.777Z,97875.06
2023-03-15T06:41:21.306Z,97868.81
2023-03-15T06:42:26.931Z,97872.97
2023-03-15T06:43:30.977Z,97872.84
2023-03-15T06:44:33.876Z,97871.00
2023-03-15T06:45:40.625Z,97873.34
2023-03-15T06:46:43.517Z,97878.00
2023-03-15T06:47:45.282Z,97885.50
2023-03-15T06:48:48.900Z,97881.97
2023-03-15T06:49:51.248Z,97886.25
2023-03-15T06:50:54.533Z,97887.88
2023-03-15T06:51:56.768Z,97886.94
2023-03-15T06:53:00.021Z,97890.22
2023-03-15T06:54:04.762Z,97890.03
2023-03-15T06:55:12.510Z,97888.88
2023-03-15T06:56:16.535Z,97894.75
2023-03-15T06:57:19.422Z,97888.66
2023-03-15T06:58:22.215Z,97897.84
2023-03-15T06:59:25.476Z,97901.84
2023-03-15T07:00:27.384Z,97905.13
2023-03-15T07:01:30.347Z,97916.91
2023-03-15T07:02:37.496Z,97913.56
2023-03-15T07:03:40.346Z,97918.19
2023-03-15T07:04:42.135Z,97920.22
2023-03-15T07:05:45.579Z,97923.66
2023-03-15T07:06:47.357Z,97928.28
2023-03-15T07:07:50.120Z,97923.13
2023-03-15T07:08:52.066Z,97932.81
2023-03-15T07:09:56.158Z,97927.88
2023-03-15T07:10:58.976Z,97925.78
2023-03-15T07:12:00.793Z,97928.75
2023-03-15T07:13:05.052Z,97929.94
2023-03-15T07:14:06.822Z,97929.47
2023-03-15T07:15:10.896Z,97920.31
2023-03-15T07:16:12.885Z,97929.47
2023-03-15T07:17:15.692Z,97929.38
2023-03-15T07:18:17.795Z,97934.31
2023-03-15T07:19:20.529Z,97932.31
2023-03-15T07:20:22.514Z,97930.41
2023-03-15T07:21:25.672Z,97930.41
2023-03-15T07:22:27.496Z,97937.16
2023-03-15T07:23:30.440Z,97927.72
2023-03-15T07:24:32.464Z,97927.97
2023-03-15T07:25:52.066Z,97934.09
2023-03-15T07:26:57.148Z,97932.06
2023-03-15T07:27:59.030Z,97928.06
2023-03-15T07:29:01.742Z,97934.16
2023-03-15T07:30:04.499Z,97930.66
2023-03-15T07:31:08.245Z,97939.94
2023-03-15T07:32:10.590Z,97938.91
2023-03-15T07:33:13.360Z,97939.34
2023-03-15T07:34:16.293Z,97937.22
2023-03-15T07:35:19.124Z,97940.06
2023-03-15T07:36:22.279Z,97939.25
2023-03-15T07:37:24.207Z,97944.28
2023-03-15T07:38:29.198Z,97940.63
2023-03-15T07:39:32.478Z,97943.81
2023-03-15T07:40:36.627Z,97945.25
2023-03-15T07:41:38.865Z,97939.81
2023-03-15T07:42:49.866Z,97936.88
2023-03-15T07:43:51.832Z,97935.38
2023-03-15T07:44:54.583Z,97945.72
2023-03-15T07:45:56.347Z,97944.78
2023-03-15T07:46:59.309Z,97941.38
2023-03-15T07:48:01.395Z,97941.38
2023-03-15T07:49:04.181Z,97945.72
2023-03-15T07:50:07.790Z,97950.66
2023-03-15T07:51:10.605Z,97939.25
2023-03-15T07:52:12.790Z,97940.09
2023-03-15T07:53:15.802Z,97949.41
2023-03-15T07:54:17.547Z,97946.44
2023-03-15T07:55:20.313Z,97954.19
2023-03-15T07:56:24.455Z,97953.38
2023-03-15T07:57:28.957Z,97947.50
2023-03-15T07:58:30.934Z,97967.41
2023-03-15T07:59:33.744Z,97964.00
2023-03-15T08:00:35.512Z,97957.25
2023-03-15T08:01:38.351Z,97968.78
2023-03-15T08:02:41.786Z,97959.38
2023-03-15T08:03:44.705Z,97963.59
2023-03-15T08:04:50.451Z,97971.16
2023-03-15T08:05:53.430Z,97974.22
2023-03-15T08:06:55.188Z,97971.41
2023-03-15T08:07:58.354Z,97967.88
2023-03-15T08:09:04.327Z,97961.53
2023-03-15T08:10:07.296Z,97962.34
2023-03-15T08:11:10.422Z,97969.78
2023-03-15T08:12:13.973Z,97969.88
2023-03-15T08:13:16.791Z,97974.59
2023-03-15T08:14:18.779Z,97980.94
2023-03-15T08:15:21.999Z,97990.41
2023-03-15T08:16:23.788Z,97984.84
2023-03-15T08:17:26.544Z,97985.56
2023-03-15T08:18:29.786Z,97988.88
2023-03-15T08:19:32.501Z,97993.91
2023-03-15T08:20:34.290Z,97996.63
2023-03-15T08:21:37.125Z,97996.75
2023-03-15T08:22:39.002Z,97994.28
2023-03-15T08:23:41.943Z,97992.16
2023-03-15T08:24:45.448Z,97994.06
2023-03-15T08:25:48.515Z,98000.53
2023-03-15T08:26:51.213Z,97990.97
2023-03-15T08:27:55.566Z,98002.75
2023-03-15T08:28:57.349Z,98000.16
2023-03-15T08:30:00.118Z,98003.25
2023-03-15T08:31:07.645Z,98003.00
2023-03-15T08:32:10.840Z,98015.47
2023-03-15T08:33:12.739Z,98019.28
2023-03-15T08:34:16.112Z,98015.97
2023-03-15T08:35:19.286Z,98009.13
2023-03-15T08:36:22.210Z,98018.56
2023-03-15T08:37:24.288Z,98008.91
2023-03-15T08:38:27.326Z,98015.47
2023-03-15T08:39:29.193Z,98016.69
2023-03-15T08:40:32.494Z,98016.91
2023-03-15T08:41:35.546Z,98011.34
2023-03-15T08:42:37.902Z,98015.25
2023-03-15T08:43:42.041Z,98014.06
2023-03-15T08:44:43.877Z,98013.72
2023-03-15T08:46:00.081Z,98015.13
2023-03-15T08:47:05.097Z,98012.41
2023-03-15T08:48:14.435Z,98014.63
2023-03-15T08:49:17.167Z,98014.72
2023-03-15T08:50:19.588Z,98005.00
2023-03-15T08:51:25.347Z,98009.25
2023-03-15T08:52:28.298Z,98007.56
2023-03-15T08:53:31.949Z,98015.06
2023-03-15T08:54:33.773Z,98012.63
2023-03-15T08:55:36.802Z,98013.44
2023-03-15T08:56:40.034Z,98023.13
2023-03-15T08:57:42.376Z,98020.19
2023-03-15T08:58:46.832Z,98031.66
2023-03-15T08:59:48.789Z,98024.44
2023-03-15T09:00:51.694Z,98029.50
2023-03-15T09:01:53.554Z,98029.50
2023-03-15T09:02:56.761Z,98026.09
2023-03-15T09:03:58.584Z,98034.09
2023-03-15T09:05:01.356Z,98039.56
2023-03-15T09:06:04.479Z,98025.72
2023-03-15T09:07:06.247Z,98039.56
2023-03-15T09:08:09.236Z,98035.19
2023-03-15T09:09:11.511Z,98042.25
2023-03-15T09:10:15.689Z,98038.25
2023-03-15T09:11:17.534Z,98039.69
2023-03-15T09:12:20.397Z,98041.69
2023-03-15T09:13:22.351Z,98042.66
2023-03-15T09:14:26.471Z,98045.25
2023-03-15T09:15:28.562Z,98039.59
2023-03-15T09:16:31.391Z,98035.97
2023-03-15T09:17:33.119Z,98046.56
2023-03-15T09:18:35.977Z,98043.66
2023-03-15T09:19:37.816Z,98044.94
2023-03-15T09:20:41.214Z,98048.47
2023-03-15T09:21:45.073Z,98054.38
2023-03-15T09:22:50.849Z,98053.41
2023-03-15T09:23:53.656Z,98055.78
2023-03-15T09:24:55.565Z,98050.34
2023-03-15T09:25:58.321Z,98055.31
2023-03-15T09:27:00.104Z,98062.25
2023-03-15T09:28:03.127Z,98058.00
2023-03-15T09:29:05.239Z,98059.91
2023-03-15T09:30:11.100Z,98057.91
2023-03-15T09:31:13.988Z,98051.53
2023-03-15T09:32:15.903Z,98060.00
2023-03-15T09:33:18.634Z,98053.38
2023-03-15T09:34:21.786Z,98051.97
2023-03-15T09:35:24.703Z,98049.94
2023-03-15T09:36:27.503Z,98053.63
2023-03-15T09:37:29.735Z,98045.47
2023-03-15T09:38:32.787Z,98050.53
2023-03-15T09:39:34.581Z,98050.53
2023-03-15T09:40:40.670Z,98041.69
2023-03-15T09:41:45.721Z,98055.69
2023-03-15T09:42:55.961Z,98051.78
2023-03-15T09:44:11.851Z,98044.00
2023-03-15T09:45:19.713Z,98037.03
2023-03-15T09:46:28.190Z,98037.75
2023-03-15T09:47:39.435Z,98044.34
2023-03-15T09:48:49.893Z,98041.84
2023-03-15T09:49:55.996Z,98044.13
2023-03-15T09:51:01.857Z,98046.94
2023-03-15T09:52:10.041Z,98046.94
2023-03-15T09:53:15.573Z,98060.50
2023-03-15T09:54:23.750Z,98052.38
2023-03-15T09:55:27.320Z,98050.38
2023-03-15T09:56:33.101Z,98050.91
2023-03-15T09:57:41.051Z,98051.78
2023-03-15T09:58:43.061Z,98040.81
2023-03-15T09:59:48.156Z,98049.53
2023-03-15T10:00:53.880Z,98054.47
2023-03-15T10:01:57.695Z,98052.31
2023-03-15T10:03:06.853Z,98057.16
2023-03-15T10:04:12.886Z,98044.75
2023-03-15T10:05:18.966Z,98047.34
2023-03-15T10:06:24.338Z,98051.28
2023-03-15T10:07:27.233Z,98044.53
2023-03-15T10:08:29.334Z,98042.31
2023-03-15T10:09:34.441Z,98047.88
2023-03-15T10:10:41.488Z,98055.09
2023-03-15T10:11:48.326Z,98060.78
2023-03-15T10:12:57.354Z,98061.69
2023-03-15T10:14:08.734Z,98062.53
2023-03-15T10:15:30.792Z,98062.75
2023-03-15T10:16:41.716Z,98061.06
2023-03-15T10:17:48.936Z,98063.28
2023-03-15T10:19:03.814Z,98068.94
2023-03-15T10:20:09.586Z,98067.84
2023-03-15T10:21:14.529Z,98064.78
2023-03-15T10:22:23.742Z,98072.91
2023-03-15T10:23:34.294Z,98075.00
2023-03-15T10:24:39.628Z,98073.66
2023-03-15T10:25:42.584Z,98073.44
2023-03-15T10:27:55.219Z,98068.47
2023-03-15T10:28:57.358Z,98080.19
2023-03-15T10:30:20.362Z,98072.75
2023-03-15T10:31:41.091Z,98064.97
2023-03-15T10:32:52.878Z,98069.94
2023-03-15T10:33:56.193Z,98085.97
2023-03-15T10:34:59.446Z,98073.66
2023-03-15T10:36:11.145Z,98070.81
2023-03-15T10:37:14.356Z,98073.16
2023-03-15T10:38:17.409Z,98069.63
2023-03-15T10:39:19.676Z,98075.75
2023-03-15T10:40:44.303Z,98076.84
2023-03-15T10:41:48.684Z,98060.81
2023-03-15T10:42:51.517Z,98076.09
2023-03-15T10:44:00.157Z,98074.69
2023-03-15T10:45:19.388Z,98076.56
2023-03-15T10:46:24.052Z,98079.16
2023-03-15T10:47:27.912Z,98080.69
2023-03-15T10:48:32.195Z,98064.59
2023-03-15T10:49:36.638Z,98068.47
2023-03-15T10:50:40.660Z,98075.75
2023-03-15T10:51:45.207Z,98066.63
2023-03-15T10:52:50.406Z,98074.78
2023-03-15T10:53:57.178Z,98080.16
2023-03-15T10:55:04.404Z,98077.53
2023-03-15T10:56:09.784Z,98078.75
2023-03-15T10:57:14.796Z,98077.38
2023-03-15T10:58:25.776Z,98082.56
2023-03-15T10:59:30.699Z,98081.59
2023-03-15T11:00:33.790Z,98084.78
2023-03-15T11:01:37.474Z,98076.59
2023-03-15T11:02:49.511Z,98080.72
2023-03-15T11:04:05.783Z,98080.22
2023-03-15T11:05:17.653Z,98085.28
2023-03-15T11:06:21.732Z,98094.03
2023-03-15T11:07:24.541Z,98080.47
2023-03-15T11:08:37.225Z,98093.84
2023-03-15T11:09:41.625Z,98085.59
2023-03-15T11:10:44.391Z,98085.03
2023-03-15T11:11:56.255Z,98095.56
2023-03-15T11:13:20.571Z,98082.22
2023-03-15T11:14:23.504Z,98092.75
2023-03-15T11:15:25.339Z,98083.19
2023-03-15T11:16:28.234Z,98097.94
2023-03-15T11:17:34.063Z,98093.69
2023-03-15T11:18:38.711Z,98096.31
2023-03-15T11:19:55.804Z,98092.97
2023-03-15T11:20:58.411Z,98090.34
2023-03-15T11:22:02.298Z,98090.22
2023-03-15T11:23:14.016Z,98071.06
2023-03-15T11:24:24.072Z,98077.81
2023-03-15T11:25:31.372Z,98084.97
2023-03-15T11:26:36.062Z,98084.88
2023-03-15T11:27:38.023Z,98084.72
2023-03-15T11:28:44.810Z,98086.28
2023-03-15T11:29:50.157Z,98080.16
2023-03-15T11:30:52.109Z,98085.94
2023-03-15T11:31:55.573Z,98085.56
2023-03-15T11:33:01.035Z,98085.47
2023-03-15T11:34:06.527Z,98085.13
2023-03-15T11:35:14.024Z,98084.59
2023-03-15T11:36:18.360Z,98086.09
2023-03-15T11:37:23.106Z,98083.63
2023-03-15T11:38:33.344Z,98079.97
2023-03-15T11:39:40.203Z,98082.00
2023-03-15T11:40:45.297Z,98081.19
2023-03-15T11:41:52.509Z,98075.44
2023-03-15T11:42:57.694Z,98087.25
2023-03-15T11:44:08.230Z,98080.38
2023-03-15T11:45:17.097Z,98080.09
2023-03-15T11:46:25.928Z,98085.75
2023-03-15T11:47:38.444Z,98086.03
2023-03-15T11:48:45.964Z,98085.31
2023-03-15T11:49:51.089Z,98086.13
2023-03-15T11:50:55.559Z,98091.09
2023-03-15T11:51:57.688Z,98086.03
2023-03-15T11:53:03.869Z,98089.94
2023-03-15T11:54:09.809Z,98092.13
2023-03-15T11:55:18.951Z,98088.28
2023-03-15T11:56:23.690Z,98078.41
2023-03-15T11:57:53.402Z,98082.03
2023-03-15T11:59:08.697Z,98087.06
2023-03-15T12:00:47.910Z,98085.25
2023-03-15T12:01:52.277Z,98090.69
2023-03-15T12:02:55.871Z,98085.50
2023-03-15T12:04:49.621Z,98092.47
2023-03-15T12:05:52.357Z,98091.34
2023-03-15T12:06:57.239Z,98095.03
2023-03-15T12:08:01.014Z,98095.84
2023-03-15T12:09:04.917Z,98095.84
2023-03-15T12:10:31.799Z,98094.06
2023-03-15T12:11:39.410Z,98097.63
2023-03-15T12:12:46.842Z,98099.53
2023-03-15T12:13:55.786Z,98102.53
2023-03-15T12:15:08.398Z,98098.16
2023-03-15T12:16:12.516Z,98106.63
2023-03-15T12:17:37.816Z,98105.88
2023-03-15T12:18:44.694Z,98108.91
2023-03-15T12:19:46.980Z,98087.84
2023-03-15T12:20:59.396Z,98107.69
2023-03-15T12:22:03.947Z,98103.75
2023-03-15T12:23:19.147Z,98101.31
2023-03-15T12:24:24.214Z,98098.25
2023-03-15T12:25:33.855Z,98085.66
2023-03-15T12:26:41.617Z,98106.06
2023-03-15T12:27:48.292Z,98103.63
2023-03-15T12:28:53.690Z,98116.53
2023-03-15T12:30:00.947Z,98113.00
2023-03-15T12:31:04.709Z,98110.00
2023-03-15T12:32:10.796Z,98108.66
2023-03-15T12:33:15.502Z,98107.28
2023-03-15T12:34:28.755Z,98112.91
2023-03-15T12:35:38.145Z,98110.56
2023-03-15T12:36:42.460Z,98111.66
2023-03-15T12:37:47.777Z,98114.81
2023-03-15T12:39:01.377Z,98113.59
2023-03-15T12:40:42.754Z,98124.84
2023-03-15T12:41:46.750Z,98120.72
2023-03-15T12:43:04.409Z,98122.97
2023-03-15T12:44:38.823Z,98122.31
2023-03-15T12:45:46.548Z,98130.09
2023-03-15T12:46:57.979Z,98113.75
2023-03-15T12:48:22.027Z,98120.97
2023-03-15T12:49:42.721Z,98119.00
2023-03-15T12:50:52.781Z,98120.22
2023-03-15T12:51:59.368Z,98122.78
2023-03-15T12:53:06.068Z,98110.47
2023-03-15T12:54:10.792Z,98120.44
2023-03-15T12:55:17.158Z,98129.97
2023-03-15T12:56:44.336Z,98128.25
2023-03-15T12:57:49.691Z,98133.38
2023-03-15T12:58:54.565Z,98130.25
2023-03-15T12:59:59.645Z,98132.00
2023-03-15T13:01:02.979Z,98133.22
2023-03-15T13:02:41.726Z,98131.50
2023-03-15T13:03:45.902Z,98137.56
2023-03-15T13:04:49.867Z,98143.16
2023-03-15T13:06:03.904Z,98136.41
2023-03-15T13:07:18.757Z,98143.38
2023-03-15T13:08:25.532Z,98142.44
2023-03-15T13:10:08.963Z,98149.53
2023-03-15T13:11:18.826Z,98156.28